Terminal Aerodrome Forecast
Issued by NWS Cleveland, OH

Home | Current Version | Previous Version | Text Only | Print | Product List | Glossary On
Versions: 1 2 3 4 5 6 7 8 9 10 11 12 13 14 15 16 17 18 19 20 21 22
100
FTUS41 KCLE 310840 AAA
TAFYNG
TAF AMD
KYNG 310840Z 3109/0106 00000KT 1SM BR OVC002
      TEMPO 3109/3112 1/4SM FG
     FM311400 20003KT 3SM BR OVC007
     FM311500 22005KT P6SM BKN010
     FM311700 24007KT P6SM BKN040
     FM311900 30007KT P6SM BKN050
     FM010300 VRB03KT 4SM BR OVC100=

USA.gov is the U.S. government's official web portal to all federal, state and local government web resources and services.